5VG2 weather

Foster Field
Mathews, Virginia, United States

Public forecast

Using degrees Fahrenheit for public forecast. Weather courtesy of forecast.io.

METAR (pilot weather report)

Closest report is Middle Peninsula Regional Airport, 19.1 nm (35.4 km) WNW. Retrieved 2019/07/21 01:35 UTC (18 minutes ago):

KFYJ 210135Z AUTO 00000KT 10SM CLR 29/27 A2989 RMK AO1 T02890267

TAF (pilot weather forecast)

Forecast is more than 12 hours old.

Closest forecast is Newport News Williamsburg International Airport, 20.2 nm (37.4 km) SSW. Retrieved 2019/07/20 00:24 UTC (1 day ago):

TAF KPHF 202321Z 2100/2124 24005KT P6SM FEW200 FM211700 25010KT P6SM FEW050